sensor_id;sensor_type;location;lat;lon;timestamp;pressure;altitude;pressure_sealevel;temperature
33267;BMP180;19638;49.080;11.896;2023-07-29T00:02:13;95985.00;;;18.30
33267;BMP180;19638;49.080;11.896;2023-07-29T00:06:16;95984.00;;;18.30
33267;BMP180;19638;49.080;11.896;2023-07-29T00:10:24;95975.00;;;18.20
33267;BMP180;19638;49.080;11.896;2023-07-29T00:14:32;95982.00;;;18.20
33267;BMP180;19638;49.080;11.896;2023-07-29T00:18:36;95985.00;;;18.30
33267;BMP180;19638;49.080;11.896;2023-07-29T00:22:40;95977.00;;;18.20
33267;BMP180;19638;49.080;11.896;2023-07-29T00:26:46;95980.00;;;18.30
33267;BMP180;19638;49.080;11.896;2023-07-29T00:30:51;95995.00;;;18.20
33267;BMP180;19638;49.080;11.896;2023-07-29T00:34:59;95992.00;;;18.20
33267;BMP180;19638;49.080;11.896;2023-07-29T00:39:11;95981.00;;;18.20
33267;BMP180;19638;49.080;11.896;2023-07-29T00:43:16;95977.00;;;18.20
33267;BMP180;19638;49.080;11.896;2023-07-29T00:47:25;95976.00;;;18.10
33267;BMP180;19638;49.080;11.896;2023-07-29T00:51:28;95987.00;;;18.10
33267;BMP180;19638;49.080;11.896;2023-07-29T00:55:32;95982.00;;;18.10
33267;BMP180;19638;49.080;11.896;2023-07-29T00:59:38;95973.00;;;18.10
33267;BMP180;19638;49.080;11.896;2023-07-29T01:03:42;95962.00;;;18.00
33267;BMP180;19638;49.080;11.896;2023-07-29T01:07:51;95957.00;;;18.00
33267;BMP180;19638;49.080;11.896;2023-07-29T01:12:04;95949.00;;;18.00
33267;BMP180;19638;49.080;11.896;2023-07-29T01:16:17;95956.00;;;18.00
33267;BMP180;19638;49.080;11.896;2023-07-29T01:20:24;95963.00;;;18.10
33267;BMP180;19638;49.080;11.896;2023-07-29T01:24:29;95974.00;;;18.10
33267;BMP180;19638;49.080;11.896;2023-07-29T01:28:32;95965.00;;;18.10
33267;BMP180;19638;49.080;11.896;2023-07-29T01:32:43;95958.00;;;18.20
33267;BMP180;19638;49.080;11.896;2023-07-29T01:36:47;95931.00;;;18.20
33267;BMP180;19638;49.080;11.896;2023-07-29T01:40:54;95945.00;;;18.20
33267;BMP180;19638;49.080;11.896;2023-07-29T01:44:58;95950.00;;;18.20
33267;BMP180;19638;49.080;11.896;2023-07-29T01:49:04;95951.00;;;18.20
33267;BMP180;19638;49.080;11.896;2023-07-29T01:53:07;95959.00;;;18.20
33267;BMP180;19638;49.080;11.896;2023-07-29T01:57:11;95958.00;;;18.20
33267;BMP180;19638;49.080;11.896;2023-07-29T02:01:14;95957.00;;;18.20
33267;BMP180;19638;49.080;11.896;2023-07-29T02:05:18;95954.00;;;18.20
33267;BMP180;19638;49.080;11.896;2023-07-29T02:09:21;95954.00;;;18.20
33267;BMP180;19638;49.080;11.896;2023-07-29T02:13:25;95954.00;;;18.30
33267;BMP180;19638;49.080;11.896;2023-07-29T02:17:31;95957.00;;;18.30
33267;BMP180;19638;49.080;11.896;2023-07-29T02:21:35;95953.00;;;18.30
33267;BMP180;19638;49.080;11.896;2023-07-29T02:25:38;95964.00;;;18.40
33267;BMP180;19638;49.080;11.896;2023-07-29T02:29:43;95961.00;;;18.40
33267;BMP180;19638;49.080;11.896;2023-07-29T02:33:46;95970.00;;;18.40
33267;BMP180;19638;49.080;11.896;2023-07-29T02:37:49;95965.00;;;18.40
33267;BMP180;19638;49.080;11.896;2023-07-29T02:41:54;95962.00;;;18.40
33267;BMP180;19638;49.080;11.896;2023-07-29T02:45:59;95949.00;;;18.30
33267;BMP180;19638;49.080;11.896;2023-07-29T02:50:05;95952.00;;;18.10
33267;BMP180;19638;49.080;11.896;2023-07-29T02:54:10;95947.00;;;18.00
33267;BMP180;19638;49.080;11.896;2023-07-29T02:58:13;95946.00;;;17.90
33267;BMP180;19638;49.080;11.896;2023-07-29T03:02:23;95934.00;;;17.70
33267;BMP180;19638;49.080;11.896;2023-07-29T03:06:26;95940.00;;;17.60
33267;BMP180;19638;49.080;11.896;2023-07-29T03:10:29;95934.00;;;17.50
33267;BMP180;19638;49.080;11.896;2023-07-29T03:14:34;95937.00;;;17.30
33267;BMP180;19638;49.080;11.896;2023-07-29T03:18:39;95919.00;;;17.20
33267;BMP180;19638;49.080;11.896;2023-07-29T03:22:45;95916.00;;;17.00
33267;BMP180;19638;49.080;11.896;2023-07-29T03:26:49;95919.00;;;16.90
33267;BMP180;19638;49.080;11.896;2023-07-29T03:30:55;95924.00;;;16.70
33267;BMP180;19638;49.080;11.896;2023-07-29T03:35:04;95917.00;;;16.60
33267;BMP180;19638;49.080;11.896;2023-07-29T03:39:07;95916.00;;;16.50
33267;BMP180;19638;49.080;11.896;2023-07-29T03:43:12;95919.00;;;16.40
33267;BMP180;19638;49.080;11.896;2023-07-29T03:47:15;95936.00;;;16.40
33267;BMP180;19638;49.080;11.896;2023-07-29T03:51:19;95932.00;;;16.30
33267;BMP180;19638;49.080;11.896;2023-07-29T03:55:31;95924.00;;;16.30
33267;BMP180;19638;49.080;11.896;2023-07-29T03:59:34;95930.00;;;16.30
33267;BMP180;19638;49.080;11.896;2023-07-29T04:03:44;95924.00;;;16.30
33267;BMP180;19638;49.080;11.896;2023-07-29T04:07:49;95924.00;;;16.30
33267;BMP180;19638;49.080;11.896;2023-07-29T04:11:52;95935.00;;;16.30
33267;BMP180;19638;49.080;11.896;2023-07-29T04:16:00;95924.00;;;16.30
33267;BMP180;19638;49.080;11.896;2023-07-29T04:20:05;95927.00;;;16.40
33267;BMP180;19638;49.080;11.896;2023-07-29T04:24:10;95921.00;;;16.60
33267;BMP180;19638;49.080;11.896;2023-07-29T04:28:15;95922.00;;;16.80
33267;BMP180;19638;49.080;11.896;2023-07-29T04:32:20;95922.00;;;17.00
33267;BMP180;19638;49.080;11.896;2023-07-29T04:36:28;95926.00;;;17.10
33267;BMP180;19638;49.080;11.896;2023-07-29T04:40:34;95920.00;;;17.30
33267;BMP180;19638;49.080;11.896;2023-07-29T04:44:39;95919.00;;;17.40
33267;BMP180;19638;49.080;11.896;2023-07-29T04:48:45;95920.00;;;17.60
33267;BMP180;19638;49.080;11.896;2023-07-29T04:52:48;95925.00;;;17.80
33267;BMP180;19638;49.080;11.896;2023-07-29T04:56:59;95914.00;;;18.00
33267;BMP180;19638;49.080;11.896;2023-07-29T05:01:04;95914.00;;;18.30
33267;BMP180;19638;49.080;11.896;2023-07-29T05:05:10;95911.00;;;18.50
33267;BMP180;19638;49.080;11.896;2023-07-29T05:09:17;95915.00;;;18.60
33267;BMP180;19638;49.080;11.896;2023-07-29T05:13:22;95917.00;;;18.70
33267;BMP180;19638;49.080;11.896;2023-07-29T05:17:25;95917.00;;;18.70
33267;BMP180;19638;49.080;11.896;2023-07-29T05:21:31;95916.00;;;18.70
33267;BMP180;19638;49.080;11.896;2023-07-29T05:25:34;95916.00;;;18.90
33267;BMP180;19638;49.080;11.896;2023-07-29T05:29:39;95899.00;;;19.20
33267;BMP180;19638;49.080;11.896;2023-07-29T05:33:43;95899.00;;;19.40
33267;BMP180;19638;49.080;11.896;2023-07-29T05:37:49;95917.00;;;19.80
33267;BMP180;19638;49.080;11.896;2023-07-29T05:41:53;95912.00;;;20.30
33267;BMP180;19638;49.080;11.896;2023-07-29T05:45:57;95906.00;;;20.90
33267;BMP180;19638;49.080;11.896;2023-07-29T05:50:06;95915.00;;;21.20
33267;BMP180;19638;49.080;11.896;2023-07-29T05:54:17;95918.00;;;21.30
33267;BMP180;19638;49.080;11.896;2023-07-29T05:58:20;95920.00;;;21.40
33267;BMP180;19638;49.080;11.896;2023-07-29T06:02:26;95911.00;;;21.50
33267;BMP180;19638;49.080;11.896;2023-07-29T06:06:30;95910.00;;;21.50
33267;BMP180;19638;49.080;11.896;2023-07-29T06:10:35;95904.00;;;21.30
33267;BMP180;19638;49.080;11.896;2023-07-29T06:14:41;95900.00;;;21.30
33267;BMP180;19638;49.080;11.896;2023-07-29T06:18:47;95903.00;;;21.30
33267;BMP180;19638;49.080;11.896;2023-07-29T06:22:50;95918.00;;;21.40
33267;BMP180;19638;49.080;11.896;2023-07-29T06:26:53;95912.00;;;21.50
33267;BMP180;19638;49.080;11.896;2023-07-29T06:30:57;95916.00;;;21.80
33267;BMP180;19638;49.080;11.896;2023-07-29T06:35:04;95917.00;;;22.10
33267;BMP180;19638;49.080;11.896;2023-07-29T06:39:10;95916.00;;;22.30
33267;BMP180;19638;49.080;11.896;2023-07-29T06:43:13;95918.00;;;22.30
33267;BMP180;19638;49.080;11.896;2023-07-29T06:47:20;95921.00;;;22.30
33267;BMP180;19638;49.080;11.896;2023-07-29T06:51:28;95930.00;;;22.40
33267;BMP180;19638;49.080;11.896;2023-07-29T06:55:34;95931.00;;;22.50
33267;BMP180;19638;49.080;11.896;2023-07-29T06:59:39;95944.00;;;22.30
33267;BMP180;19638;49.080;11.896;2023-07-29T07:03:44;95937.00;;;21.90
33267;BMP180;19638;49.080;11.896;2023-07-29T07:07:49;95942.00;;;21.70
33267;BMP180;19638;49.080;11.896;2023-07-29T07:11:52;95930.00;;;21.50
33267;BMP180;19638;49.080;11.896;2023-07-29T07:15:56;95927.00;;;21.60
33267;BMP180;19638;49.080;11.896;2023-07-29T07:20:02;95914.00;;;21.50
33267;BMP180;19638;49.080;11.896;2023-07-29T07:24:09;95902.00;;;21.40
33267;BMP180;19638;49.080;11.896;2023-07-29T07:28:12;95906.00;;;21.50
33267;BMP180;19638;49.080;11.896;2023-07-29T07:32:15;95921.00;;;21.50
33267;BMP180;19638;49.080;11.896;2023-07-29T07:36:18;95942.00;;;21.60
33267;BMP180;19638;49.080;11.896;2023-07-29T07:40:23;95941.00;;;21.40
33267;BMP180;19638;49.080;11.896;2023-07-29T07:44:28;95942.00;;;21.50
33267;BMP180;19638;49.080;11.896;2023-07-29T07:48:34;95945.00;;;21.60
33267;BMP180;19638;49.080;11.896;2023-07-29T07:52:38;95953.00;;;21.40
33267;BMP180;19638;49.080;11.896;2023-07-29T07:56:43;95963.00;;;21.20
33267;BMP180;19638;49.080;11.896;2023-07-29T08:00:46;95993.00;;;20.50
33267;BMP180;19638;49.080;11.896;2023-07-29T08:04:52;95980.00;;;19.80
33267;BMP180;19638;49.080;11.896;2023-07-29T08:08:58;95986.00;;;19.50
33267;BMP180;19638;49.080;11.896;2023-07-29T08:13:04;95990.00;;;19.20
33267;BMP180;19638;49.080;11.896;2023-07-29T08:17:07;95974.00;;;18.80
33267;BMP180;19638;49.080;11.896;2023-07-29T08:21:10;95949.00;;;18.50
33267;BMP180;19638;49.080;11.896;2023-07-29T08:25:13;95944.00;;;18.40
33267;BMP180;19638;49.080;11.896;2023-07-29T08:29:18;95935.00;;;18.40
33267;BMP180;19638;49.080;11.896;2023-07-29T08:33:21;95913.00;;;18.50
33267;BMP180;19638;49.080;11.896;2023-07-29T08:37:24;95943.00;;;18.50
33267;BMP180;19638;49.080;11.896;2023-07-29T08:41:34;95914.00;;;18.50
33267;BMP180;19638;49.080;11.896;2023-07-29T08:45:42;95935.00;;;18.60
33267;BMP180;19638;49.080;11.896;2023-07-29T08:49:48;95916.00;;;18.70
33267;BMP180;19638;49.080;11.896;2023-07-29T08:53:53;95907.00;;;18.80
33267;BMP180;19638;49.080;11.896;2023-07-29T08:57:57;95905.00;;;19.00
33267;BMP180;19638;49.080;11.896;2023-07-29T09:02:02;95911.00;;;19.20
33267;BMP180;19638;49.080;11.896;2023-07-29T09:06:08;95918.00;;;19.50
33267;BMP180;19638;49.080;11.896;2023-07-29T09:10:13;95916.00;;;19.80
33267;BMP180;19638;49.080;11.896;2023-07-29T09:14:17;95917.00;;;20.10
33267;BMP180;19638;49.080;11.896;2023-07-29T09:18:22;95901.00;;;20.30
33267;BMP180;19638;49.080;11.896;2023-07-29T09:22:26;95910.00;;;20.50
33267;BMP180;19638;49.080;11.896;2023-07-29T09:26:30;95908.00;;;20.50
33267;BMP180;19638;49.080;11.896;2023-07-29T09:30:33;95910.00;;;20.40
33267;BMP180;19638;49.080;11.896;2023-07-29T09:34:43;95908.00;;;20.50
33267;BMP180;19638;49.080;11.896;2023-07-29T09:38:54;95918.00;;;20.50
33267;BMP180;19638;49.080;11.896;2023-07-29T09:43:01;95916.00;;;20.80
33267;BMP180;19638;49.080;11.896;2023-07-29T09:47:05;95917.00;;;21.10
33267;BMP180;19638;49.080;11.896;2023-07-29T09:51:14;95916.00;;;21.50
33267;BMP180;19638;49.080;11.896;2023-07-29T09:55:18;95941.00;;;21.50
33267;BMP180;19638;49.080;11.896;2023-07-29T09:59:25;95957.00;;;21.10
33267;BMP180;19638;49.080;11.896;2023-07-29T10:03:35;95952.00;;;20.60
33267;BMP180;19638;49.080;11.896;2023-07-29T10:07:44;95942.00;;;20.20
33267;BMP180;19638;49.080;11.896;2023-07-29T10:11:49;95939.00;;;19.80
33267;BMP180;19638;49.080;11.896;2023-07-29T10:15:54;95929.00;;;19.60
33267;BMP180;19638;49.080;11.896;2023-07-29T10:20:00;95923.00;;;19.60
33267;BMP180;19638;49.080;11.896;2023-07-29T10:24:09;95942.00;;;19.60
33267;BMP180;19638;49.080;11.896;2023-07-29T10:28:14;95926.00;;;19.70
33267;BMP180;19638;49.080;11.896;2023-07-29T10:32:25;95924.00;;;19.90
33267;BMP180;19638;49.080;11.896;2023-07-29T10:36:29;95908.00;;;20.10
33267;BMP180;19638;49.080;11.896;2023-07-29T10:40:47;95907.00;;;21.30
33267;BMP180;19638;49.080;11.896;2023-07-29T10:44:52;95919.00;;;22.10
33267;BMP180;19638;49.080;11.896;2023-07-29T10:48:57;95928.00;;;22.10
33267;BMP180;19638;49.080;11.896;2023-07-29T10:53:01;95917.00;;;22.40
33267;BMP180;19638;49.080;11.896;2023-07-29T10:57:05;95920.00;;;23.00
33267;BMP180;19638;49.080;11.896;2023-07-29T11:01:13;95920.00;;;23.60
33267;BMP180;19638;49.080;11.896;2023-07-29T11:05:17;95917.00;;;24.30
33267;BMP180;19638;49.080;11.896;2023-07-29T11:09:39;95928.00;;;24.30
33267;BMP180;19638;49.080;11.896;2023-07-29T11:13:45;95922.00;;;24.70
33267;BMP180;19638;49.080;11.896;2023-07-29T11:17:53;95935.00;;;24.70
33267;BMP180;19638;49.080;11.896;2023-07-29T11:21:56;95933.00;;;24.60
33267;BMP180;19638;49.080;11.896;2023-07-29T11:26:01;95924.00;;;25.10
33267;BMP180;19638;49.080;11.896;2023-07-29T11:30:12;95912.00;;;25.80
33267;BMP180;19638;49.080;11.896;2023-07-29T11:34:16;95919.00;;;26.10
33267;BMP180;19638;49.080;11.896;2023-07-29T11:38:23;95911.00;;;26.40
33267;BMP180;19638;49.080;11.896;2023-07-29T11:42:27;95913.00;;;26.70
33267;BMP180;19638;49.080;11.896;2023-07-29T11:46:37;95910.00;;;26.40
33267;BMP180;19638;49.080;11.896;2023-07-29T11:50:51;95913.00;;;26.30
33267;BMP180;19638;49.080;11.896;2023-07-29T11:55:00;95906.00;;;26.00
33267;BMP180;19638;49.080;11.896;2023-07-29T11:59:04;95907.00;;;25.70
33267;BMP180;19638;49.080;11.896;2023-07-29T12:03:09;95885.00;;;25.90
33267;BMP180;19638;49.080;11.896;2023-07-29T12:07:13;95883.00;;;25.80
33267;BMP180;19638;49.080;11.896;2023-07-29T12:11:17;95881.00;;;26.20
33267;BMP180;19638;49.080;11.896;2023-07-29T12:15:24;95882.00;;;26.90
33267;BMP180;19638;49.080;11.896;2023-07-29T12:19:33;95886.00;;;27.00
33267;BMP180;19638;49.080;11.896;2023-07-29T12:23:36;95894.00;;;27.20
33267;BMP180;19638;49.080;11.896;2023-07-29T12:27:43;95889.00;;;27.30
33267;BMP180;19638;49.080;11.896;2023-07-29T12:31:46;95887.00;;;27.50
33267;BMP180;19638;49.080;11.896;2023-07-29T12:35:53;95874.00;;;26.90
33267;BMP180;19638;49.080;11.896;2023-07-29T12:39:57;95872.00;;;26.40
33267;BMP180;19638;49.080;11.896;2023-07-29T12:44:06;95881.00;;;25.80
33267;BMP180;19638;49.080;11.896;2023-07-29T12:48:11;95877.00;;;25.40
33267;BMP180;19638;49.080;11.896;2023-07-29T12:52:16;95877.00;;;25.10
33267;BMP180;19638;49.080;11.896;2023-07-29T12:56:20;95878.00;;;25.20
33267;BMP180;19638;49.080;11.896;2023-07-29T13:00:23;95885.00;;;25.20
33267;BMP180;19638;49.080;11.896;2023-07-29T13:04:29;95890.00;;;25.10
33267;BMP180;19638;49.080;11.896;2023-07-29T13:08:35;95882.00;;;25.20
33267;BMP180;19638;49.080;11.896;2023-07-29T13:12:39;95869.00;;;25.10
33267;BMP180;19638;49.080;11.896;2023-07-29T13:16:42;95856.00;;;25.30
33267;BMP180;19638;49.080;11.896;2023-07-29T13:20:45;95858.00;;;25.60
33267;BMP180;19638;49.080;11.896;2023-07-29T13:24:50;95849.00;;;25.70
33267;BMP180;19638;49.080;11.896;2023-07-29T13:29:01;95852.00;;;25.70
33267;BMP180;19638;49.080;11.896;2023-07-29T13:33:10;95856.00;;;26.20
33267;BMP180;19638;49.080;11.896;2023-07-29T13:37:14;95849.00;;;26.90
33267;BMP180;19638;49.080;11.896;2023-07-29T13:41:20;95852.00;;;27.50
33267;BMP180;19638;49.080;11.896;2023-07-29T13:45:25;95846.00;;;27.80
33267;BMP180;19638;49.080;11.896;2023-07-29T13:49:28;95858.00;;;28.20
33267;BMP180;19638;49.080;11.896;2023-07-29T13:53:32;95863.00;;;28.10
33267;BMP180;19638;49.080;11.896;2023-07-29T13:57:39;95854.00;;;28.00
33267;BMP180;19638;49.080;11.896;2023-07-29T14:01:42;95869.00;;;28.30
33267;BMP180;19638;49.080;11.896;2023-07-29T14:05:47;95864.00;;;28.30
33267;BMP180;19638;49.080;11.896;2023-07-29T14:09:50;95862.00;;;28.20
33267;BMP180;19638;49.080;11.896;2023-07-29T14:13:58;95865.00;;;28.10
33267;BMP180;19638;49.080;11.896;2023-07-29T14:18:08;95857.00;;;28.30
33267;BMP180;19638;49.080;11.896;2023-07-29T14:22:12;95847.00;;;28.50
33267;BMP180;19638;49.080;11.896;2023-07-29T14:26:16;95849.00;;;29.00
33267;BMP180;19638;49.080;11.896;2023-07-29T14:30:24;95852.00;;;29.30
33267;BMP180;19638;49.080;11.896;2023-07-29T14:34:27;95852.00;;;29.50
33267;BMP180;19638;49.080;11.896;2023-07-29T14:38:31;95854.00;;;29.60
33267;BMP180;19638;49.080;11.896;2023-07-29T14:42:37;95861.00;;;29.70
33267;BMP180;19638;49.080;11.896;2023-07-29T14:46:45;95855.00;;;29.50
33267;BMP180;19638;49.080;11.896;2023-07-29T14:50:49;95852.00;;;29.70
33267;BMP180;19638;49.080;11.896;2023-07-29T14:54:55;95854.00;;;29.70
33267;BMP180;19638;49.080;11.896;2023-07-29T14:58:58;95839.00;;;29.30
33267;BMP180;19638;49.080;11.896;2023-07-29T15:03:04;95837.00;;;29.00
33267;BMP180;19638;49.080;11.896;2023-07-29T15:07:10;95829.00;;;28.90
33267;BMP180;19638;49.080;11.896;2023-07-29T15:11:17;95837.00;;;28.70
33267;BMP180;19638;49.080;11.896;2023-07-29T15:15:24;95834.00;;;28.80
33267;BMP180;19638;49.080;11.896;2023-07-29T15:19:29;95841.00;;;28.50
33267;BMP180;19638;49.080;11.896;2023-07-29T15:23:32;95831.00;;;28.30
33267;BMP180;19638;49.080;11.896;2023-07-29T15:27:36;95831.00;;;28.50
33267;BMP180;19638;49.080;11.896;2023-07-29T15:31:40;95831.00;;;28.80
33267;BMP180;19638;49.080;11.896;2023-07-29T15:35:45;95823.00;;;28.90
33267;BMP180;19638;49.080;11.896;2023-07-29T15:39:51;95830.00;;;28.80
33267;BMP180;19638;49.080;11.896;2023-07-29T15:43:54;95822.00;;;28.60
33267;BMP180;19638;49.080;11.896;2023-07-29T15:47:57;95821.00;;;28.40
33267;BMP180;19638;49.080;11.896;2023-07-29T15:52:06;95834.00;;;28.10
33267;BMP180;19638;49.080;11.896;2023-07-29T15:56:14;95833.00;;;28.10
33267;BMP180;19638;49.080;11.896;2023-07-29T16:00:17;95825.00;;;28.30
33267;BMP180;19638;49.080;11.896;2023-07-29T16:04:21;95821.00;;;28.50
33267;BMP180;19638;49.080;11.896;2023-07-29T16:08:27;95831.00;;;28.70
33267;BMP180;19638;49.080;11.896;2023-07-29T16:12:30;95832.00;;;28.60
33267;BMP180;19638;49.080;11.896;2023-07-29T16:16:40;95837.00;;;28.60
33267;BMP180;19638;49.080;11.896;2023-07-29T16:20:43;95838.00;;;28.60
33267;BMP180;19638;49.080;11.896;2023-07-29T16:24:49;95840.00;;;28.70
33267;BMP180;19638;49.080;11.896;2023-07-29T16:28:53;95842.00;;;28.80
33267;BMP180;19638;49.080;11.896;2023-07-29T16:32:57;95842.00;;;29.10
33267;BMP180;19638;49.080;11.896;2023-07-29T16:37:04;95842.00;;;28.50
33267;BMP180;19638;49.080;11.896;2023-07-29T16:41:10;95845.00;;;28.20
33267;BMP180;19638;49.080;11.896;2023-07-29T16:45:33;95849.00;;;28.50
33267;BMP180;19638;49.080;11.896;2023-07-29T16:49:40;95850.00;;;28.50
33267;BMP180;19638;49.080;11.896;2023-07-29T16:53:44;95848.00;;;28.20
33267;BMP180;19638;49.080;11.896;2023-07-29T16:57:49;95849.00;;;28.00
33267;BMP180;19638;49.080;11.896;2023-07-29T17:01:52;95850.00;;;27.90
33267;BMP180;19638;49.080;11.896;2023-07-29T17:05:55;95856.00;;;27.70
33267;BMP180;19638;49.080;11.896;2023-07-29T17:09:59;95865.00;;;27.20
33267;BMP180;19638;49.080;11.896;2023-07-29T17:14:03;95865.00;;;26.90
33267;BMP180;19638;49.080;11.896;2023-07-29T17:18:09;95868.00;;;26.90
33267;BMP180;19638;49.080;11.896;2023-07-29T17:22:13;95864.00;;;26.90
33267;BMP180;19638;49.080;11.896;2023-07-29T17:26:19;95861.00;;;26.80
33267;BMP180;19638;49.080;11.896;2023-07-29T17:30:25;95861.00;;;26.70
33267;BMP180;19638;49.080;11.896;2023-07-29T17:34:32;95861.00;;;26.70
33267;BMP180;19638;49.080;11.896;2023-07-29T17:38:36;95865.00;;;26.70
33267;BMP180;19638;49.080;11.896;2023-07-29T17:42:39;95873.00;;;27.20
33267;BMP180;19638;49.080;11.896;2023-07-29T17:46:43;95866.00;;;27.40
33267;BMP180;19638;49.080;11.896;2023-07-29T17:50:48;95882.00;;;27.20
33267;BMP180;19638;49.080;11.896;2023-07-29T17:54:54;95878.00;;;27.30
33267;BMP180;19638;49.080;11.896;2023-07-29T17:59:02;95871.00;;;27.60
33267;BMP180;19638;49.080;11.896;2023-07-29T18:03:06;95878.00;;;27.40
33267;BMP180;19638;49.080;11.896;2023-07-29T18:07:10;95875.00;;;26.80
33267;BMP180;19638;49.080;11.896;2023-07-29T18:11:16;95892.00;;;26.30
33267;BMP180;19638;49.080;11.896;2023-07-29T18:15:22;95905.00;;;25.80
33267;BMP180;19638;49.080;11.896;2023-07-29T18:19:28;95898.00;;;25.40
33267;BMP180;19638;49.080;11.896;2023-07-29T18:23:32;95911.00;;;25.10
33267;BMP180;19638;49.080;11.896;2023-07-29T18:27:35;95911.00;;;24.80
33267;BMP180;19638;49.080;11.896;2023-07-29T18:31:40;95914.00;;;24.50
33267;BMP180;19638;49.080;11.896;2023-07-29T18:35:44;95916.00;;;24.30
33267;BMP180;19638;49.080;11.896;2023-07-29T18:39:48;95921.00;;;23.90
33267;BMP180;19638;49.080;11.896;2023-07-29T18:43:51;95929.00;;;23.60
33267;BMP180;19638;49.080;11.896;2023-07-29T18:48:00;95930.00;;;23.20
33267;BMP180;19638;49.080;11.896;2023-07-29T18:52:09;95921.00;;;22.90
33267;BMP180;19638;49.080;11.896;2023-07-29T18:56:14;95922.00;;;22.60
33267;BMP180;19638;49.080;11.896;2023-07-29T19:00:17;95926.00;;;22.30
33267;BMP180;19638;49.080;11.896;2023-07-29T19:04:22;95922.00;;;22.10
33267;BMP180;19638;49.080;11.896;2023-07-29T19:08:27;95928.00;;;21.90
33267;BMP180;19638;49.080;11.896;2023-07-29T19:12:31;95928.00;;;21.80
33267;BMP180;19638;49.080;11.896;2023-07-29T19:16:38;95929.00;;;21.60
33267;BMP180;19638;49.080;11.896;2023-07-29T19:20:42;95930.00;;;21.60
33267;BMP180;19638;49.080;11.896;2023-07-29T19:24:47;95936.00;;;21.50
33267;BMP180;19638;49.080;11.896;2023-07-29T19:28:52;95938.00;;;21.30
33267;BMP180;19638;49.080;11.896;2023-07-29T19:32:59;95952.00;;;21.30
33267;BMP180;19638;49.080;11.896;2023-07-29T19:37:03;95963.00;;;21.20
33267;BMP180;19638;49.080;11.896;2023-07-29T19:41:12;95948.00;;;21.10
33267;BMP180;19638;49.080;11.896;2023-07-29T19:45:17;95948.00;;;21.10
33267;BMP180;19638;49.080;11.896;2023-07-29T19:49:20;95950.00;;;21.00
33267;BMP180;19638;49.080;11.896;2023-07-29T19:53:24;95955.00;;;21.00
33267;BMP180;19638;49.080;11.896;2023-07-29T19:57:32;95962.00;;;20.90
33267;BMP180;19638;49.080;11.896;2023-07-29T20:01:36;95945.00;;;20.80
33267;BMP180;19638;49.080;11.896;2023-07-29T20:05:42;95970.00;;;20.80
33267;BMP180;19638;49.080;11.896;2023-07-29T20:09:47;95960.00;;;20.70
33267;BMP180;19638;49.080;11.896;2023-07-29T20:13:53;95952.00;;;20.70
33267;BMP180;19638;49.080;11.896;2023-07-29T20:17:56;95958.00;;;20.70
33267;BMP180;19638;49.080;11.896;2023-07-29T20:22:05;95948.00;;;20.70
33267;BMP180;19638;49.080;11.896;2023-07-29T20:26:13;95964.00;;;20.70
33267;BMP180;19638;49.080;11.896;2023-07-29T20:30:19;95985.00;;;20.70
33267;BMP180;19638;49.080;11.896;2023-07-29T20:34:24;95974.00;;;20.60
33267;BMP180;19638;49.080;11.896;2023-07-29T20:38:34;95961.00;;;20.10
33267;BMP180;19638;49.080;11.896;2023-07-29T20:42:38;95970.00;;;19.80
33267;BMP180;19638;49.080;11.896;2023-07-29T20:46:42;95989.00;;;19.70
33267;BMP180;19638;49.080;11.896;2023-07-29T20:50:48;95978.00;;;19.50
33267;BMP180;19638;49.080;11.896;2023-07-29T20:54:51;95990.00;;;19.50
33267;BMP180;19638;49.080;11.896;2023-07-29T20:58:54;95988.00;;;19.40
33267;BMP180;19638;49.080;11.896;2023-07-29T21:03:00;95985.00;;;19.40
33267;BMP180;19638;49.080;11.896;2023-07-29T21:07:13;96000.00;;;19.40
33267;BMP180;19638;49.080;11.896;2023-07-29T21:11:19;96011.00;;;19.30
33267;BMP180;19638;49.080;11.896;2023-07-29T21:15:22;95995.00;;;19.30
33267;BMP180;19638;49.080;11.896;2023-07-29T21:19:27;96000.00;;;19.30
33267;BMP180;19638;49.080;11.896;2023-07-29T21:23:30;95988.00;;;19.30
33267;BMP180;19638;49.080;11.896;2023-07-29T21:27:37;95992.00;;;19.20
33267;BMP180;19638;49.080;11.896;2023-07-29T21:31:42;95986.00;;;19.20
33267;BMP180;19638;49.080;11.896;2023-07-29T21:35:47;95991.00;;;19.20
33267;BMP180;19638;49.080;11.896;2023-07-29T21:39:52;95995.00;;;19.20
33267;BMP180;19638;49.080;11.896;2023-07-29T21:43:58;95990.00;;;19.30
33267;BMP180;19638;49.080;11.896;2023-07-29T21:48:01;95998.00;;;19.20
33267;BMP180;19638;49.080;11.896;2023-07-29T21:52:06;95994.00;;;19.20
33267;BMP180;19638;49.080;11.896;2023-07-29T21:56:11;95993.00;;;19.30
33267;BMP180;19638;49.080;11.896;2023-07-29T22:00:19;95996.00;;;19.20
33267;BMP180;19638;49.080;11.896;2023-07-29T22:04:23;95997.00;;;19.20
33267;BMP180;19638;49.080;11.896;2023-07-29T22:08:27;95990.00;;;19.20
33267;BMP180;19638;49.080;11.896;2023-07-29T22:12:32;95980.00;;;19.10
33267;BMP180;19638;49.080;11.896;2023-07-29T22:16:35;95978.00;;;19.00
33267;BMP180;19638;49.080;11.896;2023-07-29T22:20:38;95974.00;;;18.90
33267;BMP180;19638;49.080;11.896;2023-07-29T22:24:45;95983.00;;;18.80
33267;BMP180;19638;49.080;11.896;2023-07-29T22:28:48;95985.00;;;18.70
33267;BMP180;19638;49.080;11.896;2023-07-29T22:32:55;95984.00;;;18.70
33267;BMP180;19638;49.080;11.896;2023-07-29T22:37:01;95976.00;;;18.60
33267;BMP180;19638;49.080;11.896;2023-07-29T22:41:12;95972.00;;;18.60
33267;BMP180;19638;49.080;11.896;2023-07-29T22:45:17;95972.00;;;18.50
33267;BMP180;19638;49.080;11.896;2023-07-29T22:49:23;95967.00;;;18.30
33267;BMP180;19638;49.080;11.896;2023-07-29T22:53:26;95956.00;;;18.30
33267;BMP180;19638;49.080;11.896;2023-07-29T22:57:33;95950.00;;;18.20
33267;BMP180;19638;49.080;11.896;2023-07-29T23:01:36;95954.00;;;18.20
33267;BMP180;19638;49.080;11.896;2023-07-29T23:05:40;95953.00;;;18.10
33267;BMP180;19638;49.080;11.896;2023-07-29T23:09:46;95945.00;;;18.10
33267;BMP180;19638;49.080;11.896;2023-07-29T23:13:51;95931.00;;;18.00